• Join FlightAware (Why Join?)
  • Login
  • US Flag 
04:31AM EDT


 

Airport Tracker/Info


-or-


 

Live Flight TrackerFlight Track Log ✈ SWA2436 ✈ 11-Apr-2013 ✈ KMHT - KMCO

Flight Track Log - Related Links

Times and Time Zones

All times are in EDT time to prevent confusion due to time zone crossing. See the SWA2436 flight status page for this flight to view local times or setup timezone preferences in your user account.

Time Position Orientation Groundspeed Altitude Reporting Facility
EDT Latitude Longitude Course Direction KTS MPH feet Rate Location/Type
04:40PM 42.9667 -71.4500 324° Northwest 171 197 1,900  Level KA90
04:41PM 42.9903 -71.4664 333° Northwest 201 231 3,100 1,860 Climbing Boston Center
04:42PM 43.0250 -71.4064 52° Northeast 325 374 4,700 1,860 Climbing Boston Center
04:43PM 43.0347 -71.3153 82° East 284 327 6,900 2,220 Climbing Boston Center
04:44PM 43.0500 -71.1956 80° East 299 344 9,300 2,880 Climbing Boston Center
04:45PM 43.0733 -71.0472 78° East 342 394 12,800 2,820 Climbing Boston Center
04:46PM 43.0344 -70.9317 115° Southeast 358 412 14,900 2,700 Climbing Boston Center
04:47PM 42.9342 -70.9086 170° South 308 354 18,200 2,400 Climbing Boston Center
04:48PM 42.8575 -70.9447 199° South 291 335 19,900 1,860 Climbing Boston Center
04:49PM 42.7581 -70.9950 200° South 333 383 22,000 2,160 Climbing Boston Center
04:50PM 42.6567 -71.0456 200° South 365 420 24,200 2,100 Climbing Boston Center
04:51PM 42.5553 -71.1069 204° Southwest 389 448 26,200 1,740 Climbing Boston Center
04:52PM 42.4667 -71.1989 217° Southwest 398 458 27,700 1,440 Climbing Boston Center
04:53PM 42.3758 -71.2961 218° Southwest 416 479 29,200 1,980 Climbing Boston Center
04:54PM 42.2831 -71.3933 218° Southwest 422 486 31,800 2,160 Climbing Boston Center
04:55PM 42.1964 -71.4844 218° Southwest 422 486 33,600 1,560 Climbing Boston Center
04:56PM 42.0928 -71.5839 215° Southwest 417 480 35,000 1,380 Climbing Boston Center
04:57PM 41.9833 -71.6972 218° Southwest 417 480 36,600 1,260 Climbing Boston Center
04:58PM 41.8942 -71.7875 217° Southwest 417 480 37,800 660 Climbing Boston Center
04:59PM 41.8031 -71.8831 218° Southwest 417 480 38,000 60 Climbing Boston Center
05:00PM 41.7139 -71.9728 217° Southwest 417 480 38,000  Level Boston Center
05:01PM 41.6244 -72.0653 218° Southwest 417 480 38,000  Level Boston Center
05:02PM 41.5353 -72.1572 218° Southwest 417 480 38,000  Level Boston Center
05:03PM 41.4436 -72.2461 216° Southwest 417 480 38,000  Level Boston Center
05:04PM 41.3375 -72.3544 217° Southwest 411 473 38,000  Level Boston Center
05:05PM 41.2458 -72.4483 218° Southwest 416 479 38,000  Level Boston Center
05:06PM 41.1561 -72.5394 217° Southwest 422 486 38,000  Level Boston Center
05:07PM 41.0644 -72.6300 217° Southwest 417 480 38,000  Level Boston Center
05:08PM 40.9744 -72.7206 217° Southwest 417 480 38,000  Level Boston Center
05:09PM 40.8867 -72.8106 218° Southwest 417 480 38,000  Level Boston Center
05:10PM 40.7947 -72.9033 217° Southwest 417 480 38,000  Level Boston Center
05:11PM 40.7133 -72.9714 212° Southwest 411 473 38,000  Level Boston Center
05:12PM 40.6231 -73.0633 218° Southwest 406 467 38,000  Level Boston Center
05:13PM 40.5350 -73.1556 219° Southwest 406 467 38,000  Level Boston Center
05:16PM 40.3094 -73.3717 216° Southwest 406 467 38,000  Level Washington Center
05:17PM 40.2217 -73.4614 218° Southwest 406 467 38,000  Level Washington Center
05:18PM 40.1192 -73.5542 215° Southwest 406 467 38,000  Level Washington Center
05:19PM 40.0267 -73.6408 216° Southwest 406 467 38,000  Level Washington Center
05:20PM 39.9344 -73.7300 217° Southwest 411 473 38,000  Level Washington Center
05:21PM 39.8442 -73.8186 217° Southwest 411 473 38,000  Level Washington Center
05:22PM 39.7619 -73.8964 216° Southwest 411 473 38,000  Level Washington Center
05:23PM 39.6694 -73.9847 216° Southwest 411 473 38,000  Level Washington Center
05:24PM 39.5747 -74.0731 216° Southwest 416 479 38,000  Level Washington Center
05:25PM 39.4800 -74.1611 216° Southwest 416 479 38,000  Level Washington Center
05:26PM 39.3892 -74.2461 216° Southwest 416 479 38,000  Level Washington Center
05:27PM 39.2964 -74.3339 216° Southwest 423 487 38,000  Level Washington Center
05:28PM 39.2056 -74.4183 216° Southwest 417 480 38,000  Level Washington Center
05:29PM 39.1147 -74.5028 216° Southwest 412 474 38,000  Level Washington Center
05:30PM 39.0194 -74.5925 216° Southwest 417 480 38,000  Level Washington Center
05:31PM 38.9286 -74.6792 217° Southwest 417 480 38,000  Level Washington Center
05:32PM 38.8333 -74.7628 214° Southwest 417 480 38,000  Level Washington Center
05:33PM 38.7419 -74.8492 216° Southwest 417 480 38,000  Level Washington Center
05:34PM 38.6508 -74.9272 214° Southwest 417 480 38,000  Level Washington Center
05:35PM 38.5617 -75.0128 217° Southwest 412 474 38,000  Level Washington Center
05:36PM 38.4703 -75.0958 215° Southwest 412 474 38,000  Level Washington Center
05:37PM 38.3808 -75.1758 215° Southwest 407 468 38,000  Level Washington Center
05:38PM 38.2914 -75.2611 217° Southwest 407 468 38,000  Level Washington Center
05:39PM 38.2000 -75.3433 215° Southwest 407 468 38,000  Level Washington Center
05:40PM 38.1083 -75.4228 214° Southwest 402 463 38,000  Level Washington Center
05:41PM 38.0125 -75.4942 210° Southwest 402 463 38,000  Level Washington Center
05:42PM 37.9083 -75.5575 206° Southwest 407 468 38,000  Level Washington Center
05:43PM 37.8061 -75.6206 206° Southwest 413 475 38,000  Level Washington Center
05:44PM 37.6997 -75.6811 204° Southwest 413 475 38,000  Level Washington Center
05:45PM 37.5975 -75.7439 206° Southwest 413 475 38,000  Level Washington Center
05:46PM 37.4931 -75.8039 205° Southwest 413 475 38,000  Level Washington Center
05:47PM 37.3928 -75.8636 205° Southwest 407 468 38,000  Level Washington Center
05:48PM 37.2906 -75.9233 205° Southwest 407 468 38,000  Level Washington Center
05:49PM 37.1881 -75.9828 205° Southwest 402 463 38,000  Level Washington Center
05:50PM 37.0897 -76.0422 206° Southwest 402 463 38,000  Level Washington Center
05:51PM 36.9853 -76.1042 205° Southwest 402 463 38,000 -360 Level Washington Center
05:52PM 36.8786 -76.1606 203° Southwest 409 471 37,300 -540 Descending Washington Center
05:53PM 36.7783 -76.2194 205° Southwest 409 471 37,000 -180 Descending Washington Center
05:54PM 36.6756 -76.2808 206° Southwest 409 471 37,000  Level Washington Center
05:55PM 36.5772 -76.3472 208° Southwest 403 464 37,000  Level Washington Center
05:56PM 36.4953 -76.4369 221° Southwest 403 464 37,000  Level Washington Center
05:57PM 36.4131 -76.5289 222° Southwest 403 464 37,000  Level Washington Center
05:58PM 36.3289 -76.6206 221° Southwest 403 464 37,000 360 Level Washington Center
05:59PM 36.2469 -76.7097 221° Southwest 403 464 37,800 480 Climbing Washington Center
06:00PM 36.1461 -76.7700 206° Southwest 398 458 38,000 60 Climbing Washington Center
06:01PM 36.0433 -76.8328 206° Southwest 405 466 38,000  Level Washington Center
06:02PM 35.9425 -76.8953 207° Southwest 405 466 38,000  Level Washington Center
06:03PM 35.8417 -76.9578 207° Southwest 410 472 38,000  Level Washington Center
06:04PM 35.7386 -77.0250 208° Southwest 410 472 38,000  Level Washington Center
06:05PM 35.6356 -77.0872 206° Southwest 410 472 38,000  Level Washington Center
06:06PM 35.5325 -77.1514 207° Southwest 415 478 38,000  Level Washington Center
06:07PM 35.4294 -77.2183 208° Southwest 415 478 38,000  Level Washington Center
06:08PM 35.3264 -77.2800 206° Southwest 415 478 38,000  Level Washington Center
06:09PM 35.2253 -77.3414 206° Southwest 415 478 38,000  Level Washington Center
06:10PM 35.1200 -77.4050 206° Southwest 415 478 38,000  Level Washington Center
06:11PM 35.0189 -77.4689 207° Southwest 415 478 38,000  Level Washington Center
06:12PM 34.9178 -77.5297 206° Southwest 410 472 38,000  Level Washington Center
06:13PM 34.8186 -77.5958 209° Southwest 410 472 38,000  Level Washington Center
06:14PM 34.7153 -77.6539 205° Southwest 410 472 38,000  Level Washington Center
06:15PM 34.6161 -77.7194 209° Southwest 410 472 38,000  Level Washington Center
06:16PM 34.5128 -77.7822 207° Southwest 410 472 38,000  Level Washington Center
06:17PM 34.4094 -77.8425 206° Southwest 410 472 38,000  Level Washington Center
06:18PM 34.3019 -77.8922 201° Southwest 410 472 38,000  Level Washington Center
06:19PM 34.1867 -77.9217 192° South 415 478 38,000  Level Washington Center
06:21PM 33.9767 -77.9819 193° South 430 495 38,000  Level Jacksonville Center
06:22PM 33.8592 -78.0186 195° South 430 495 38,000  Level Jacksonville Center
06:23PM 33.7414 -78.0525 193° South 430 495 38,000  Level Jacksonville Center
06:24PM 33.6133 -78.0869 193° South 430 495 38,000  Level Jacksonville Center
06:25PM 33.4958 -78.1208 194° South 430 495 38,000  Level Jacksonville Center
06:26PM 33.3803 -78.1542 194° South 430 495 38,000  Level Jacksonville Center
06:27PM 33.2647 -78.1878 194° South 430 495 38,000  Level Jacksonville Center
06:28PM 33.1467 -78.2189 192° South 430 495 38,000  Level Jacksonville Center
06:29PM 33.0292 -78.2522 193° South 430 495 38,000  Level Jacksonville Center
06:30PM 32.9133 -78.2853 193° South 430 495 38,000  Level Jacksonville Center
06:31PM 32.7956 -78.3186 193° South 430 495 38,000  Level Jacksonville Center
06:32PM 32.6778 -78.3517 193° South 430 495 38,000  Level Jacksonville Center
06:33PM 32.5600 -78.3847 193° South 430 495 38,000  Level Jacksonville Center
06:34PM 32.4444 -78.4150 192° South 430 495 38,000  Level Jacksonville Center
06:35PM 32.3392 -78.4497 196° South 430 495 38,000  Level Jacksonville Center
06:36PM 32.2214 -78.4850 194° South 435 501 38,000  Level Jacksonville Center
06:37PM 32.1056 -78.5175 193° South 435 501 38,000  Level Jacksonville Center
06:38PM 31.9878 -78.5525 194° South 430 495 38,000  Level Jacksonville Center
06:39PM 31.8719 -78.5847 193° South 430 495 38,000  Level Jacksonville Center
06:40PM 31.7583 -78.6194 195° South 430 495 38,000  Level Jacksonville Center
06:41PM 31.6406 -78.6517 193° South 430 495 38,000  Level Jacksonville Center
06:42PM 31.5225 -78.6839 193° South 430 495 38,000  Level Jacksonville Center
06:43PM 31.4089 -78.7206 195° South 430 495 38,000  Level Jacksonville Center
06:44PM 31.2931 -78.7525 193° South 430 495 38,000  Level Jacksonville Center
06:45PM 31.1753 -78.7869 194° South 430 495 38,000  Level Jacksonville Center
06:46PM 31.0594 -78.8186 193° South 430 495 38,000  Level Jacksonville Center
06:47PM 30.9311 -78.8531 193° South 432 497 38,000  Level Jacksonville Center
06:48PM 30.8172 -78.8869 194° South 425 489 38,000  Level Jacksonville Center
06:50PM 30.5419 -78.9600 193° South 421 484 38,000  Level Miami Center
06:51PM 30.4289 -78.9939 194° South 421 484 38,000  Level Miami Center
06:52PM 30.3200 -79.0397 200° South 421 484 38,000  Level Miami Center
06:53PM 30.2086 -79.0878 200° South 426 490 38,000  Level Miami Center
06:54PM 30.0975 -79.1358 201° Southwest 431 496 38,000 -600 Level Miami Center
06:55PM 29.9819 -79.1908 202° Southwest 431 496 36,900 -1,020 Descending Miami Center
06:56PM 29.8706 -79.2436 202° Southwest 426 490 36,000 -480 Descending Miami Center
06:57PM 29.7642 -79.2508 183° South 441 507 36,000  Level Miami Center
06:58PM 29.6328 -79.2503 180° South 448 516 36,000  Level Miami Center
06:59PM 29.5097 -79.2500 180° South 453 521 36,000  Level Miami Center
07:00PM 29.3925 -79.2808 193° South 453 521 36,000 -960 Level Miami Center
07:01PM 29.3075 -79.3669 221° Southwest 410 472 34,100 -2,040 Descending Miami Center
07:02PM 29.2244 -79.4578 224° Southwest 410 472 32,000 -2,100 Descending Miami Center
07:03PM 29.1375 -79.5389 219° Southwest 410 472 30,000 -1,980 Descending Miami Center
07:04PM 29.0731 -79.6322 232° Southwest 390 449 28,100 -1,920 Descending Miami Center
07:05PM 29.0417 -79.7406 252° West 370 426 26,200 -1,920 Descending Miami Center
07:06PM 29.0103 -79.8442 251° West 365 420 24,300 -1,800 Descending Miami Center
07:07PM 28.9811 -79.9478 252° West 354 407 22,600 -1,800 Descending Miami Center
07:08PM 28.9519 -80.0419 251° West 349 402 20,700 -1,920 Descending Miami Center
07:10PM 28.8833 -80.2833 252° West 319 367 16,400 -1,860 Descending Orlando TRACON
07:11PM 28.8500 -80.3667 245° Southwest 311 358 14,800 -1,200 Descending Orlando TRACON
07:12PM 28.8333 -80.4833 261° West 308 354 14,000 -1,020 Descending Orlando TRACON
07:13PM 28.8333 -80.5833 270° West 315 362 12,700 -1,380 Descending Orlando TRACON
07:14PM 28.8333 -80.6833 270° West 302 348 11,300 -1,320 Descending Orlando TRACON
07:15PM 28.8167 -80.7667 257° West 283 326 10,200 -1,200 Descending Orlando TRACON
07:16PM 28.8167 -80.8500 270° West 275 316 9,100 -1,320 Descending Orlando TRACON
07:17PM 28.8167 -80.9333 270° West 274 315 7,600 -1,200 Descending Orlando TRACON
07:18PM 28.8000 -81.0167 257° West 249 287 6,600 -840 Descending Orlando TRACON
07:19PM 28.7833 -81.0833 254° West 219 252 6,000 -360 Descending Orlando TRACON
07:20PM 28.7667 -81.1500 254° West 217 250 6,000 -360 Level Orlando TRACON
07:21PM 28.7333 -81.2167 240° Southwest 219 252 5,300 -900 Descending Orlando TRACON
07:22PM 28.7000 -81.2500 221° Southwest 211 243 4,300 -1,020 Descending Orlando TRACON
07:23PM 28.6500 -81.2833 210° Southwest 202 232 3,300 -780 Descending Orlando TRACON
07:24PM 28.6000 -81.2833 180° South 201 231 3,000 -420 Descending Orlando TRACON